Westcliffe, Colorado
Current Conditions -  °F | °C
As of 6:25 AM on Saturday 25 Oct 2014 (Local Time) from K1V6 Reporting Station
Clear Clear  
Wind Chill: 57°   Ceiling: Unl
Heat Index: 57°   Visibility: 10mi
Dew Point: 23°   Wind: 21mph
Humidity: 27%   Direction: 290°WNW
Pressure: 30.23"   Gusts: 26mph
Location:  38.13°N, 105.47°W
Report Text: K1V6 251225Z AUTO 29018G23KT 10SM CLR 14/M05 A3023 RMK AO2
Loading
Personal Weather Stations






























Interactive Weather Map
Tropical Storm Tracking
New forecast layout! Learn more

10-Day Weather Forecast

Advertisements
Track Severe Weather on mobile